Time;durP1;ratioP1;P1;durP2;ratioP2;P2;SDS_P1;SDS_P2;PMS_P1;PMS_P2;Temp;Humidity;BMP_temperature;BMP_pressure;BME280_temperature;BME280_humidity;BME280_pressure;Samples;Min_cycle;Max_cycle;Signal;HPM_P1;HPM_P2
2022/11/09 00:00:09;;;;;;;;;;;17.50;99.90;17.60;99263.00;;;;341620;28;83537;-87
2022/11/09 00:00:21;;;;;;;;;;;17.50;99.90;17.60;99255.00;;;;341643;28;88268;-87
2022/11/09 00:00:32;;;;;;;;;;;17.40;99.90;17.70;99255.00;;;;339410;28;83618;-87
2022/11/09 00:00:44;;;;;;;;;;;17.50;99.90;17.70;99263.00;;;;341552;28;89389;-86
2022/11/09 00:01:00;;;;;;;;;;;17.50;99.90;17.70;99264.00;;;;344782;28;83495;-87
2022/11/09 00:01:12;;;;;;;;;;;17.40;99.90;17.70;99257.00;;;;344259;28;88776;-87
2022/11/09 00:01:25;;;;;;;;;;;17.50;99.90;17.70;99256.00;;;;347458;27;83462;-87
2022/11/09 00:01:37;;;;;;;;;;;17.40;99.90;17.70;99254.00;;;;344297;28;89038;-87
2022/11/09 00:01:49;;;;;;;;;;;17.50;99.90;17.70;99255.00;;;;341877;28;83488;-87
2022/11/09 00:02:01;;;;;;;;;;;17.40;99.90;17.70;99255.00;;;;344116;28;90609;-88
2022/11/09 00:02:12;;;;;;;;;;;17.50;99.90;17.70;99256.00;;;;343250;28;82734;-87
2022/11/09 00:02:24;;;;;;;;;;;17.40;99.90;17.70;99258.00;;;;345551;28;90461;-87
2022/11/09 00:02:36;;;;;;;;;;;17.50;99.90;17.70;99265.00;;;;343035;28;83937;-87
2022/11/09 00:02:54;;;;;;;;;;;17.40;99.90;17.70;99267.00;;;;344147;28;90361;-86
2022/11/09 00:03:06;;;;;;;;;;;17.50;99.90;17.80;99263.00;;;;346102;28;82684;-87
2022/11/09 00:03:18;;;;;;;;;;;17.50;99.90;17.70;99260.00;;;;342889;28;90257;-87
2022/11/09 00:03:30;;;;;;;;;;;17.50;99.90;17.70;99258.00;;;;344662;28;84198;-87
2022/11/09 00:03:41;;;;;;;;;;;17.50;99.90;17.70;99255.00;;;;342950;28;89127;-86
2022/11/09 00:03:57;;;;;;;;;;;17.50;99.90;17.70;99260.00;;;;343151;28;83484;-87
2022/11/09 00:04:09;;;;;;;;;;;17.50;99.90;17.70;99256.00;;;;341354;28;93792;-87
2022/11/09 00:04:21;;;;;;;;;;;17.50;99.90;17.70;99256.00;;;;343359;28;83326;-87
2022/11/09 00:04:32;;;;;;;;;;;17.50;99.90;17.80;99272.00;;;;341357;28;91363;-87
2022/11/09 00:04:44;;;;;;;;;;;17.50;99.90;17.70;99267.00;;;;343288;28;83531;-87
2022/11/09 00:04:56;;;;;;;;;;;17.50;99.90;17.70;99257.00;;;;344285;28;90245;-87
2022/11/09 00:05:07;;;;;;;;;;;17.50;99.90;17.70;99272.00;;;;346065;28;83424;-87
2022/11/09 00:05:19;;;;;;;;;;;17.50;99.90;17.70;99267.00;;;;342683;28;92089;-87
2022/11/09 00:05:31;;;;;;;;;;;17.50;99.90;17.70;99257.00;;;;343263;28;82570;-87
2022/11/09 00:05:42;;;;;;;;;;;17.50;99.90;17.70;99259.00;;;;344275;28;90541;-87
2022/11/09 00:05:55;;;;;;;;;;;17.50;99.90;17.70;99255.00;;;;344622;28;82521;-87
2022/11/09 00:06:07;;;;;;;;;;;17.50;99.90;17.70;99260.00;;;;342783;28;93024;-87
2022/11/09 00:06:18;;;;;;;;;;;17.50;99.90;17.70;99260.00;;;;341905;28;82593;-87
2022/11/09 00:06:30;;;;;;;;;;;17.50;99.90;17.70;99257.00;;;;344280;28;91506;-87
2022/11/09 00:06:42;;;;;;;;;;;17.50;99.90;17.70;99261.00;;;;344606;28;83454;-87
2022/11/09 00:06:54;;;;;;;;;;;17.50;99.90;17.70;99258.00;;;;342771;28;91503;-86
2022/11/09 00:07:05;;;;;;;;;;;17.50;99.90;17.70;99262.00;;;;343333;28;83378;-87
2022/11/09 00:07:17;;;;;;;;;;;17.50;99.90;17.70;99269.00;;;;342952;28;90692;-87
2022/11/09 00:07:30;;;;;;;;;;;17.50;99.90;17.70;99265.00;;;;343173;28;83736;-87
2022/11/09 00:07:42;;;;;;;;;;;17.50;99.90;17.70;99264.00;;;;345629;28;91510;-87
2022/11/09 00:07:53;;;;;;;;;;;17.50;99.90;17.70;99268.00;;;;344595;28;82494;-87
2022/11/09 00:08:06;;;;;;;;;;;17.50;99.90;17.80;99264.00;;;;342806;28;92553;-87
2022/11/09 00:08:18;;;;;;;;;;;17.50;99.90;17.70;99269.00;;;;344327;28;83481;-87
2022/11/09 00:08:30;;;;;;;;;;;17.50;99.90;17.70;99269.00;;;;344273;28;90194;-87
2022/11/09 00:08:41;;;;;;;;;;;17.50;99.90;17.70;99276.00;;;;342037;28;82492;-87
2022/11/09 00:08:53;;;;;;;;;;;17.50;99.90;17.70;99276.00;;;;345649;28;90356;-87
2022/11/09 00:09:05;;;;;;;;;;;17.50;99.90;17.70;99273.00;;;;346236;28;82554;-87
2022/11/09 00:09:19;;;;;;;;;;;17.50;99.90;17.80;99263.00;;;;344359;28;90316;-87
2022/11/09 00:09:30;;;;;;;;;;;17.50;99.90;17.80;99257.00;;;;348799;27;83422;-87
2022/11/09 00:09:42;;;;;;;;;;;17.50;99.90;17.80;99264.00;;;;347049;28;91623;-87
2022/11/09 00:09:54;;;;;;;;;;;17.50;99.90;17.80;99257.00;;;;346206;28;82506;-87
2022/11/09 00:10:06;;;;;;;;;;;17.50;99.90;17.80;99266.00;;;;349524;27;92205;-87
2022/11/09 00:10:18;;;;;;;;;;;17.50;99.90;17.70;99260.00;;;;351757;27;83457;-87
2022/11/09 00:10:29;;;;;;;;;;;17.50;99.90;17.70;99258.00;;;;347076;28;90163;-87
2022/11/09 00:10:41;;;;;;;;;;;17.50;99.90;17.70;99258.00;;;;344749;28;83459;-87
2022/11/09 00:10:53;;;;;;;;;;;17.50;99.90;17.70;99252.00;;;;345723;28;89149;-87
2022/11/09 00:11:06;;;;;;;;;;;17.50;99.90;17.80;99249.00;;;;346230;28;82545;-87
2022/11/09 00:11:18;;;;;;;;;;;17.50;99.90;17.80;99258.00;;;;348487;27;91512;-87
2022/11/09 00:11:30;;;;;;;;;;;17.50;99.90;17.70;99261.00;;;;347449;28;84408;-87
2022/11/09 00:11:41;;;;;;;;;;;17.50;99.90;17.80;99266.00;;;;345671;28;91249;-86
2022/11/09 00:11:53;;;;;;;;;;;17.50;99.90;17.70;99260.00;;;;347454;28;82489;-87
2022/11/09 00:12:06;;;;;;;;;;;17.50;99.90;17.70;99269.00;;;;346870;28;91429;-87
2022/11/09 00:12:18;;;;;;;;;;;17.50;99.90;17.70;99273.00;;;;344584;28;83320;-87
2022/11/09 00:12:29;;;;;;;;;;;17.50;99.90;17.70;99268.00;;;;348468;27;88547;-87
2022/11/09 00:12:41;;;;;;;;;;;17.50;99.90;17.80;99260.00;;;;350331;27;83357;-87
2022/11/09 00:12:52;;;;;;;;;;;17.50;99.90;17.70;99265.00;;;;348475;27;91388;-88
2022/11/09 00:13:04;;;;;;;;;;;17.50;99.90;17.70;99269.00;;;;348860;27;82627;-87
2022/11/09 00:13:16;;;;;;;;;;;17.50;99.90;17.70;99265.00;;;;345694;28;91508;-87
2022/11/09 00:13:28;;;;;;;;;;;17.50;99.90;17.80;99266.00;;;;344655;28;83285;-87
2022/11/09 00:13:41;;;;;;;;;;;17.50;99.90;17.80;99258.00;;;;348477;27;90128;-87
2022/11/09 00:13:52;;;;;;;;;;;17.50;99.90;17.70;99268.00;;;;346082;28;83357;-87
2022/11/09 00:14:04;;;;;;;;;;;17.50;99.90;17.80;99257.00;;;;345312;28;91582;-87
2022/11/09 00:14:16;;;;;;;;;;;17.50;99.90;17.80;99268.00;;;;344826;28;82488;-87
2022/11/09 00:14:28;;;;;;;;;;;17.50;99.90;17.80;99267.00;;;;348320;27;91884;-86
2022/11/09 00:14:39;;;;;;;;;;;17.50;99.90;17.80;99259.00;;;;347438;28;83440;-87
2022/11/09 00:14:51;;;;;;;;;;;17.60;99.90;17.80;99266.00;;;;348252;27;90420;-87
2022/11/09 00:15:03;;;;;;;;;;;17.60;99.90;17.90;99261.00;;;;347495;28;83424;-87
2022/11/09 00:15:15;;;;;;;;;;;17.60;99.90;17.80;99259.00;;;;344288;28;90931;-87
2022/11/09 00:15:26;;;;;;;;;;;17.60;99.90;17.90;99265.00;;;;346039;28;83399;-87
2022/11/09 00:15:38;;;;;;;;;;;17.60;99.90;17.80;99269.00;;;;345346;28;91581;-87
2022/11/09 00:15:50;;;;;;;;;;;17.60;99.90;17.80;99271.00;;;;347595;28;82494;-87
2022/11/09 00:16:02;;;;;;;;;;;17.60;99.90;17.90;99275.00;;;;346926;28;92778;-87
2022/11/09 00:16:16;;;;;;;;;;;17.60;99.90;17.90;99258.00;;;;347523;28;83394;-86
2022/11/09 00:16:28;;;;;;;;;;;17.60;99.90;17.90;99262.00;;;;348484;27;91683;-86
2022/11/09 00:16:39;;;;;;;;;;;17.60;99.90;17.90;99263.00;;;;348842;27;83472;-87
2022/11/09 00:16:51;;;;;;;;;;;17.60;99.90;17.80;99265.00;;;;348482;27;90993;-87
2022/11/09 00:17:03;;;;;;;;;;;17.60;99.90;17.80;99258.00;;;;348883;27;83399;-87
2022/11/09 00:17:14;;;;;;;;;;;17.60;99.90;17.90;99263.00;;;;344384;28;91607;-87
2022/11/09 00:17:26;;;;;;;;;;;17.60;99.90;17.80;99263.00;;;;348829;27;83462;-87
2022/11/09 00:17:38;;;;;;;;;;;17.60;99.90;17.80;99259.00;;;;349837;27;91285;-87
2022/11/09 00:17:49;;;;;;;;;;;17.60;99.90;17.80;99260.00;;;;348798;27;83569;-87
2022/11/09 00:18:01;;;;;;;;;;;17.60;99.90;17.90;99259.00;;;;346917;28;91271;-87
2022/11/09 00:18:13;;;;;;;;;;;17.60;99.90;17.80;99260.00;;;;347527;28;82562;-87
2022/11/09 00:18:25;;;;;;;;;;;17.60;99.90;17.80;99261.00;;;;351317;27;91385;-87
2022/11/09 00:18:37;;;;;;;;;;;17.60;99.90;17.90;99269.00;;;;348535;27;83437;-87
2022/11/09 00:18:50;;;;;;;;;;;17.60;99.90;17.80;99268.00;;;;346898;28;91498;-87
2022/11/09 00:19:02;;;;;;;;;;;17.60;99.90;17.80;99260.00;;;;347625;28;83405;-87
2022/11/09 00:19:13;;;;;;;;;;;17.60;99.90;17.80;99264.00;;;;348470;27;92073;-87
2022/11/09 00:19:25;;;;;;;;;;;17.60;99.90;17.80;99271.00;;;;347464;28;83481;-87
2022/11/09 00:19:37;;;;;;;;;;;17.60;99.90;17.80;99262.00;;;;345633;28;91474;-87
2022/11/09 00:19:48;;;;;;;;;;;17.60;99.90;17.80;99267.00;;;;347494;28;83515;-87
2022/11/09 00:20:00;;;;;;;;;;;17.60;99.90;17.80;99263.00;;;;348395;27;92468;-87
2022/11/09 00:20:12;;;;;;;;;;;17.60;99.90;17.80;99271.00;;;;348859;27;83406;-87
2022/11/09 00:20:23;;;;;;;;;;;17.60;99.90;17.80;99272.00;;;;344264;28;91393;-87
2022/11/09 00:20:35;;;;;;;;;;;17.60;99.90;17.90;99273.00;;;;348961;27;82521;-87
2022/11/09 00:20:47;;;;;;;;;;;17.60;99.90;17.80;99272.00;;;;347007;28;90418;-87
2022/11/09 00:21:04;;;;;;;;;;;17.60;99.90;17.90;99273.00;;;;347406;28;82411;-87
2022/11/09 00:21:23;;;;;;;;;;;17.60;99.90;17.80;99265.00;;;;348264;27;89167;-87
2022/11/09 00:21:34;;;;;;;;;;;17.60;99.90;17.80;99271.00;;;;345869;28;82637;-87
2022/11/09 00:21:46;;;;;;;;;;;17.60;99.90;17.80;99269.00;;;;344282;28;91125;-88
2022/11/09 00:21:58;;;;;;;;;;;17.60;99.90;17.80;99262.00;;;;346103;28;83404;-87
2022/11/09 00:22:09;;;;;;;;;;;17.60;99.90;17.80;99273.00;;;;342702;28;92451;-87
2022/11/09 00:22:21;;;;;;;;;;;17.60;99.90;17.80;99267.00;;;;346049;28;83380;-87
2022/11/09 00:22:33;;;;;;;;;;;17.60;99.90;17.80;99269.00;;;;348412;27;91398;-87
2022/11/09 00:22:48;;;;;;;;;;;17.60;99.90;17.80;99275.00;;;;347380;28;82647;-87
2022/11/09 00:23:00;;;;;;;;;;;17.60;99.90;17.80;99269.00;;;;348456;27;91377;-87
2022/11/09 00:23:11;;;;;;;;;;;17.60;99.90;17.90;99271.00;;;;347626;28;82556;-87
2022/11/09 00:23:23;;;;;;;;;;;17.60;99.90;17.90;99274.00;;;;344258;28;90151;-87
2022/11/09 00:23:35;;;;;;;;;;;17.70;99.90;17.90;99270.00;;;;347205;28;83510;-87
2022/11/09 00:23:47;;;;;;;;;;;17.60;99.90;17.90;99269.00;;;;348372;27;91585;-87
2022/11/09 00:23:58;;;;;;;;;;;17.60;99.90;17.90;99273.00;;;;346078;28;83506;-87
2022/11/09 00:24:10;;;;;;;;;;;17.60;99.90;17.90;99273.00;;;;347005;28;91331;-87
2022/11/09 00:24:22;;;;;;;;;;;17.60;99.90;17.80;99271.00;;;;344698;28;83382;-87
2022/11/09 00:24:34;;;;;;;;;;;17.60;99.90;17.90;99273.00;;;;347023;28;91174;-87
2022/11/09 00:24:46;;;;;;;;;;;17.60;99.90;17.90;99269.00;;;;348735;27;83573;-87
2022/11/09 00:24:57;;;;;;;;;;;17.60;99.90;17.90;99266.00;;;;345559;28;91324;-87
2022/11/09 00:25:09;;;;;;;;;;;17.60;99.90;17.90;99267.00;;;;346149;28;82457;-87
2022/11/09 00:25:21;;;;;;;;;;;17.60;99.90;17.90;99273.00;;;;348454;27;91472;-88
2022/11/09 00:25:32;;;;;;;;;;;17.60;99.90;17.80;99273.00;;;;348908;27;83454;-87
2022/11/09 00:25:44;;;;;;;;;;;17.60;99.90;17.80;99272.00;;;;348450;27;91494;-87
2022/11/09 00:26:02;;;;;;;;;;;17.60;99.90;17.90;99279.00;;;;347168;28;83853;-87
2022/11/09 00:26:14;;;;;;;;;;;17.60;99.90;17.90;99269.00;;;;344196;28;91231;-87
2022/11/09 00:26:26;;;;;;;;;;;17.60;99.90;17.90;99272.00;;;;347516;28;82497;-87
2022/11/09 00:26:38;;;;;;;;;;;17.60;99.90;17.90;99280.00;;;;349804;27;91668;-87
2022/11/09 00:26:50;;;;;;;;;;;17.60;99.90;17.80;99275.00;;;;347371;28;83632;-87
2022/11/09 00:27:01;;;;;;;;;;;17.60;99.90;17.80;99281.00;;;;348407;27;91630;-87
2022/11/09 00:27:13;;;;;;;;;;;17.60;99.90;17.90;99275.00;;;;348843;27;82460;-87
2022/11/09 00:27:28;;;;;;;;;;;17.60;99.90;17.90;99275.00;;;;347013;28;90232;-87
2022/11/09 00:27:40;;;;;;;;;;;17.60;99.90;17.80;99272.00;;;;350313;27;83372;-87
2022/11/09 00:27:52;;;;;;;;;;;17.60;99.90;17.80;99273.00;;;;347045;28;90187;-87
2022/11/09 00:28:03;;;;;;;;;;;17.60;99.90;17.80;99276.00;;;;348854;27;82461;-87
2022/11/09 00:28:15;;;;;;;;;;;17.60;99.90;17.80;99275.00;;;;349764;27;91573;-87
2022/11/09 00:28:27;;;;;;;;;;;17.60;99.90;17.80;99277.00;;;;347576;28;83366;-87
2022/11/09 00:28:39;;;;;;;;;;;17.60;99.90;17.80;99274.00;;;;348523;27;91411;-87
2022/11/09 00:28:50;;;;;;;;;;;17.60;99.90;17.90;99272.00;;;;348884;27;82647;-87
2022/11/09 00:29:02;;;;;;;;;;;17.60;99.90;17.80;99271.00;;;;350021;27;88154;-87
2022/11/09 00:29:14;;;;;;;;;;;17.60;99.90;17.90;99270.00;;;;347503;28;82488;-87
2022/11/09 00:29:25;;;;;;;;;;;17.60;99.90;17.90;99274.00;;;;348013;27;90497;-87
2022/11/09 00:29:37;;;;;;;;;;;17.60;99.90;17.90;99274.00;;;;345986;28;82552;-87
2022/11/09 00:29:49;;;;;;;;;;;17.60;99.90;17.90;99268.00;;;;348205;27;90181;-87
2022/11/09 00:30:00;;;;;;;;;;;17.70;99.90;17.90;99272.00;;;;347457;28;83398;-87
2022/11/09 00:30:12;;;;;;;;;;;17.60;99.90;17.80;99268.00;;;;344204;28;91117;-87
2022/11/09 00:30:24;;;;;;;;;;;17.60;99.90;17.80;99270.00;;;;346069;28;82540;-88
2022/11/09 00:30:35;;;;;;;;;;;17.60;99.90;17.80;99268.00;;;;346988;28;91345;-88
2022/11/09 00:30:47;;;;;;;;;;;17.60;99.90;17.80;99280.00;;;;345707;28;82715;-88
2022/11/09 00:31:00;;;;;;;;;;;17.60;99.90;17.80;99269.00;;;;345637;28;91332;-87
2022/11/09 00:31:13;;;;;;;;;;;17.60;99.90;17.80;99263.00;;;;347526;28;83444;-88
2022/11/09 00:31:25;;;;;;;;;;;17.60;99.90;17.80;99266.00;;;;345580;28;91527;-88
2022/11/09 00:31:37;;;;;;;;;;;17.60;99.90;17.90;99266.00;;;;347461;28;83532;-88
2022/11/09 00:31:49;;;;;;;;;;;17.60;99.90;17.90;99268.00;;;;349653;27;90551;-88
2022/11/09 00:32:01;;;;;;;;;;;17.60;99.90;17.80;99261.00;;;;348677;27;82618;-88
2022/11/09 00:32:12;;;;;;;;;;;17.60;99.90;17.80;99259.00;;;;349806;27;91517;-88
2022/11/09 00:32:24;;;;;;;;;;;17.60;99.90;17.80;99265.00;;;;348702;27;82637;-88
2022/11/09 00:32:38;;;;;;;;;;;17.60;99.90;17.80;99265.00;;;;348246;27;91634;-88
2022/11/09 00:32:50;;;;;;;;;;;17.60;99.90;17.80;99265.00;;;;347117;28;83576;-88
2022/11/09 00:33:02;;;;;;;;;;;17.60;99.90;17.80;99273.00;;;;347011;28;90591;-88
2022/11/09 00:33:13;;;;;;;;;;;17.60;99.90;17.80;99267.00;;;;348901;27;83391;-88
2022/11/09 00:33:25;;;;;;;;;;;17.60;99.90;17.80;99267.00;;;;345677;28;90211;-88
2022/11/09 00:33:37;;;;;;;;;;;17.60;99.90;17.80;99266.00;;;;347209;27;82628;-88
2022/11/09 00:33:49;;;;;;;;;;;17.60;99.90;17.80;99270.00;;;;346660;28;89720;-88
2022/11/09 00:34:01;;;;;;;;;;;17.60;99.90;17.80;99268.00;;;;346121;28;83452;-88
2022/11/09 00:34:13;;;;;;;;;;;17.60;99.90;17.90;99267.00;;;;345566;28;91127;-88
2022/11/09 00:34:25;;;;;;;;;;;17.60;99.90;17.80;99271.00;;;;347504;28;83460;-88
2022/11/09 00:34:36;;;;;;;;;;;17.60;99.90;17.80;99272.00;;;;348480;27;89872;-87
2022/11/09 00:34:48;;;;;;;;;;;17.60;99.90;17.80;99257.00;;;;347427;28;83451;-87
2022/11/09 00:35:00;;;;;;;;;;;17.60;99.90;17.80;99271.00;;;;342935;28;90200;-87
2022/11/09 00:35:11;;;;;;;;;;;17.60;99.90;17.80;99264.00;;;;346098;28;83420;-87
2022/11/09 00:35:23;;;;;;;;;;;17.60;99.90;17.70;99275.00;;;;346852;28;91649;-87
2022/11/09 00:35:37;;;;;;;;;;;17.60;99.90;17.80;99274.00;;;;348804;27;82612;-87
2022/11/09 00:35:48;;;;;;;;;;;17.60;99.90;17.80;99272.00;;;;345720;28;90119;-87
2022/11/09 00:36:11;;;;;;;;;;;17.60;99.90;17.80;99278.00;;;;349959;27;83591;-87
2022/11/09 00:36:24;;;;;;;;;;;17.60;99.90;17.80;99270.00;;;;349740;27;93461;-87
2022/11/09 00:36:35;;;;;;;;;;;17.60;99.90;17.80;99276.00;;;;347194;28;83481;-87
2022/11/09 00:36:47;;;;;;;;;;;17.60;99.90;17.80;99270.00;;;;348298;27;90517;-87
2022/11/09 00:36:59;;;;;;;;;;;17.60;99.90;17.80;99262.00;;;;347397;28;83575;-87
2022/11/09 00:37:10;;;;;;;;;;;17.60;99.90;17.80;99274.00;;;;345607;28;92859;-87
2022/11/09 00:37:22;;;;;;;;;;;17.60;99.90;17.70;99276.00;;;;348770;27;83420;-87
2022/11/09 00:37:34;;;;;;;;;;;17.60;99.90;17.80;99259.00;;;;346809;28;90492;-87
2022/11/09 00:37:46;;;;;;;;;;;17.60;99.90;17.70;99274.00;;;;348916;27;82468;-88
2022/11/09 00:37:57;;;;;;;;;;;17.60;99.90;17.70;99269.00;;;;345469;28;90468;-87
2022/11/09 00:38:09;;;;;;;;;;;17.50;99.90;17.80;99261.00;;;;347178;28;82455;-87
2022/11/09 00:38:21;;;;;;;;;;;17.60;99.90;17.70;99268.00;;;;348226;27;91264;-88
2022/11/09 00:38:33;;;;;;;;;;;17.60;99.90;17.70;99275.00;;;;347151;28;82629;-87
2022/11/09 00:38:50;;;;;;;;;;;17.60;99.90;17.70;99268.00;;;;348306;27;90295;-87
2022/11/09 00:39:02;;;;;;;;;;;17.60;99.90;17.70;99271.00;;;;347502;28;83442;-87
2022/11/09 00:39:14;;;;;;;;;;;17.60;99.90;17.70;99275.00;;;;348209;27;90347;-87
2022/11/09 00:39:26;;;;;;;;;;;17.60;99.90;17.70;99275.00;;;;347254;28;82571;-87
2022/11/09 00:39:37;;;;;;;;;;;17.50;99.90;17.80;99276.00;;;;348205;27;91678;-87
2022/11/09 00:39:49;;;;;;;;;;;17.60;99.90;17.70;99277.00;;;;348677;27;82640;-87
2022/11/09 00:40:01;;;;;;;;;;;17.50;99.90;17.80;99275.00;;;;348173;27;90728;-87
2022/11/09 00:40:12;;;;;;;;;;;17.60;99.90;17.70;99273.00;;;;346008;28;83475;-87
2022/11/09 00:40:24;;;;;;;;;;;17.50;99.90;17.70;99268.00;;;;346807;28;90756;-87
2022/11/09 00:40:36;;;;;;;;;;;17.50;99.90;17.70;99276.00;;;;347290;28;82639;-87
2022/11/09 00:40:47;;;;;;;;;;;17.50;99.90;17.70;99282.00;;;;346653;28;90734;-87
2022/11/09 00:41:00;;;;;;;;;;;17.50;99.90;17.70;99281.00;;;;347445;28;83488;-88
2022/11/09 00:41:12;;;;;;;;;;;17.50;99.90;17.60;99277.00;;;;348201;27;90901;-87
2022/11/09 00:41:24;;;;;;;;;;;17.50;99.90;17.70;99281.00;;;;345911;28;82695;-87
2022/11/09 00:41:36;;;;;;;;;;;17.50;99.90;17.70;99276.00;;;;346529;28;91869;-87
2022/11/09 00:41:47;;;;;;;;;;;17.50;99.90;17.70;99272.00;;;;347357;28;82572;-87
2022/11/09 00:41:59;;;;;;;;;;;17.50;99.90;17.70;99273.00;;;;346766;28;91639;-87
2022/11/09 00:42:11;;;;;;;;;;;17.50;99.90;17.70;99274.00;;;;349755;27;82645;-88
2022/11/09 00:42:22;;;;;;;;;;;17.50;99.90;17.70;99278.00;;;;348070;27;92668;-87
2022/11/09 00:42:34;;;;;;;;;;;17.50;99.90;17.60;99275.00;;;;347486;28;83473;-87
2022/11/09 00:42:46;;;;;;;;;;;17.50;99.90;17.60;99271.00;;;;346976;28;91516;-87
2022/11/09 00:42:57;;;;;;;;;;;17.40;99.90;17.50;99275.00;;;;345879;28;82670;-87
2022/11/09 00:43:09;;;;;;;;;;;17.40;99.90;17.50;99279.00;;;;347101;28;91042;-87
2022/11/09 00:43:21;;;;;;;;;;;17.40;99.90;17.50;99287.00;;;;345960;28;82592;-87
2022/11/09 00:43:33;;;;;;;;;;;17.40;99.90;17.60;99287.00;;;;346924;28;91278;-86
2022/11/09 00:43:45;;;;;;;;;;;17.40;99.90;17.50;99281.00;;;;350029;27;82607;-87
2022/11/09 00:43:57;;;;;;;;;;;17.40;99.90;17.50;99273.00;;;;345647;28;90219;-87
2022/11/09 00:44:09;;;;;;;;;;;17.40;99.90;17.50;99277.00;;;;345837;28;83407;-87
2022/11/09 00:44:21;;;;;;;;;;;17.40;99.90;17.40;99277.00;;;;343953;28;90181;-88
2022/11/09 00:44:32;;;;;;;;;;;17.40;99.90;17.50;99277.00;;;;348795;27;82718;-87
2022/11/09 00:44:44;;;;;;;;;;;17.40;99.90;17.50;99280.00;;;;348401;27;90215;-87
2022/11/09 00:44:56;;;;;;;;;;;17.30;99.90;17.40;99274.00;;;;345978;28;83591;-87
2022/11/09 00:45:08;;;;;;;;;;;17.40;99.90;17.40;99280.00;;;;349819;27;91576;-87
2022/11/09 00:45:19;;;;;;;;;;;17.30;99.90;17.40;99277.00;;;;347366;28;83566;-86
2022/11/09 00:45:31;;;;;;;;;;;17.30;99.90;17.40;99287.00;;;;348350;27;91311;-87
2022/11/09 00:45:43;;;;;;;;;;;17.30;99.90;17.40;99290.00;;;;348811;27;83472;-87
2022/11/09 00:45:55;;;;;;;;;;;17.30;99.90;17.40;99285.00;;;;346876;27;89532;-87
2022/11/09 00:46:06;;;;;;;;;;;17.30;99.90;17.40;99278.00;;;;347466;28;82695;-87
2022/11/09 00:46:19;;;;;;;;;;;17.30;99.90;17.40;99288.00;;;;346925;28;91694;-87
2022/11/09 00:46:31;;;;;;;;;;;17.30;99.90;17.50;99284.00;;;;348882;27;82930;-87
2022/11/09 00:46:43;;;;;;;;;;;17.30;99.90;17.40;99284.00;;;;346993;28;91350;-87
2022/11/09 00:46:55;;;;;;;;;;;17.30;99.90;17.40;99278.00;;;;344742;28;83156;-87
2022/11/09 00:47:06;;;;;;;;;;;17.30;99.90;17.40;99280.00;;;;346949;28;90977;-87
2022/11/09 00:47:18;;;;;;;;;;;17.30;99.90;17.40;99289.00;;;;347461;28;82540;-87
2022/11/09 00:47:30;;;;;;;;;;;17.30;99.90;17.40;99290.00;;;;346775;28;89628;-87
2022/11/09 00:47:41;;;;;;;;;;;17.30;99.90;17.40;99281.00;;;;346127;28;83405;-87
2022/11/09 00:47:54;;;;;;;;;;;17.20;99.90;17.40;99279.00;;;;346845;28;91418;-87
2022/11/09 00:48:06;;;;;;;;;;;17.20;99.90;17.30;99290.00;;;;346104;28;82512;-87
2022/11/09 00:48:18;;;;;;;;;;;17.30;99.90;17.30;99282.00;;;;346916;28;92381;-88
2022/11/09 00:48:29;;;;;;;;;;;17.30;99.90;17.30;99283.00;;;;346120;28;82523;-88
2022/11/09 00:48:41;;;;;;;;;;;17.30;99.90;17.20;99283.00;;;;346980;28;92058;-88
2022/11/09 00:48:54;;;;;;;;;;;17.20;99.90;17.20;99286.00;;;;347444;28;84093;-88
2022/11/09 00:49:06;;;;;;;;;;;17.20;99.90;17.20;99293.00;;;;346915;28;91747;-87
2022/11/09 00:49:18;;;;;;;;;;;17.20;99.90;17.30;99285.00;;;;346115;28;83433;-87
2022/11/09 00:49:30;;;;;;;;;;;17.20;99.90;17.20;99281.00;;;;347059;28;88287;-87
2022/11/09 00:49:41;;;;;;;;;;;17.10;99.90;17.20;99280.00;;;;346123;28;83529;-87
2022/11/09 00:49:53;;;;;;;;;;;17.20;99.90;17.20;99289.00;;;;347013;28;91614;-88
2022/11/09 00:50:05;;;;;;;;;;;17.20;99.90;17.20;99286.00;;;;347515;28;84166;-88
2022/11/09 00:50:17;;;;;;;;;;;17.10;99.90;17.20;99284.00;;;;346959;27;91310;-87
2022/11/09 00:50:29;;;;;;;;;;;17.10;99.90;17.20;99270.00;;;;346119;28;83498;-87
2022/11/09 00:50:40;;;;;;;;;;;17.10;99.90;17.30;99284.00;;;;346979;28;91630;-87
2022/11/09 00:50:54;;;;;;;;;;;17.10;99.90;17.30;99275.00;;;;348641;27;83450;-88
2022/11/09 00:51:06;;;;;;;;;;;17.10;99.90;17.30;99283.00;;;;344291;28;91603;-88
2022/11/09 00:51:18;;;;;;;;;;;17.10;99.90;17.30;99283.00;;;;346052;28;83473;-87
2022/11/09 00:51:30;;;;;;;;;;;17.10;99.90;17.20;99283.00;;;;346963;28;90858;-87
2022/11/09 00:51:42;;;;;;;;;;;17.10;99.90;17.20;99282.00;;;;348919;27;83302;-87
2022/11/09 00:51:53;;;;;;;;;;;17.10;99.90;17.30;99287.00;;;;347051;28;91400;-87
2022/11/09 00:52:05;;;;;;;;;;;17.10;99.90;17.20;99285.00;;;;347290;28;83582;-87
2022/11/09 00:52:17;;;;;;;;;;;17.10;99.90;17.30;99287.00;;;;348289;27;93058;-87
2022/11/09 00:52:28;;;;;;;;;;;17.10;99.90;17.30;99282.00;;;;346105;28;82471;-87
2022/11/09 00:52:40;;;;;;;;;;;17.10;99.90;17.20;99278.00;;;;347006;28;90263;-87
2022/11/09 00:52:52;;;;;;;;;;;17.10;99.90;17.20;99278.00;;;;347442;28;82541;-87
2022/11/09 00:53:03;;;;;;;;;;;17.10;99.90;17.10;99273.00;;;;347062;28;90387;-87
2022/11/09 00:53:15;;;;;;;;;;;17.10;99.90;17.10;99284.00;;;;347455;28;83363;-87
2022/11/09 00:53:28;;;;;;;;;;;17.10;99.90;17.10;99282.00;;;;345607;28;91569;-88
2022/11/09 00:53:41;;;;;;;;;;;17.00;99.90;17.10;99282.00;;;;347471;28;82512;-87
2022/11/09 00:53:54;;;;;;;;;;;17.00;99.90;17.10;99278.00;;;;346658;28;91288;-87
2022/11/09 00:54:07;;;;;;;;;;;17.00;99.90;17.20;99281.00;;;;345997;28;83477;-87
2022/11/09 00:54:18;;;;;;;;;;;17.00;99.90;17.20;99281.00;;;;348344;27;92271;-87
2022/11/09 00:54:30;;;;;;;;;;;17.00;99.90;17.10;99289.00;;;;347509;28;83342;-87
2022/11/09 00:54:42;;;;;;;;;;;17.00;99.90;17.20;99288.00;;;;346914;28;91545;-87
2022/11/09 00:54:53;;;;;;;;;;;17.00;99.90;17.20;99285.00;;;;347477;28;83530;-87
2022/11/09 00:55:05;;;;;;;;;;;17.00;99.90;17.10;99289.00;;;;347098;28;91793;-87
2022/11/09 00:55:19;;;;;;;;;;;17.00;99.90;17.10;99285.00;;;;347541;28;82438;-87
2022/11/09 00:55:31;;;;;;;;;;;17.00;99.90;17.20;99289.00;;;;344215;28;90187;-88
2022/11/09 00:55:52;;;;;;;;;;;17.00;99.90;17.10;99289.00;;;;345997;28;83595;-88
2022/11/09 00:56:09;;;;;;;;;;;17.00;99.90;17.10;99281.00;;;;348213;27;91128;-87
2022/11/09 00:56:21;;;;;;;;;;;17.00;99.90;17.10;99288.00;;;;347433;28;83497;-86
2022/11/09 00:56:32;;;;;;;;;;;17.00;99.90;17.10;99289.00;;;;348398;27;92387;-87
2022/11/09 00:56:44;;;;;;;;;;;17.00;99.90;17.00;99285.00;;;;348458;27;83554;-87
2022/11/09 00:56:56;;;;;;;;;;;16.90;99.90;17.10;99287.00;;;;347118;28;89814;-87
2022/11/09 00:57:08;;;;;;;;;;;16.90;99.90;17.00;99290.00;;;;348938;27;83446;-88
2022/11/09 00:57:19;;;;;;;;;;;16.90;99.90;17.00;99284.00;;;;347060;28;90529;-87
2022/11/09 00:57:31;;;;;;;;;;;16.90;99.90;16.90;99287.00;;;;348735;27;83590;-87
2022/11/09 00:57:43;;;;;;;;;;;16.90;99.90;16.90;99285.00;;;;348193;27;90136;-87
2022/11/09 00:57:54;;;;;;;;;;;16.90;99.90;17.00;99285.00;;;;347442;28;82503;-87
2022/11/09 00:58:06;;;;;;;;;;;16.90;99.90;16.90;99287.00;;;;344237;28;89105;-87
2022/11/09 00:58:18;;;;;;;;;;;16.90;99.90;16.90;99289.00;;;;346033;28;82588;-87
2022/11/09 00:58:32;;;;;;;;;;;16.80;99.90;17.00;99286.00;;;;345614;28;91296;-87
2022/11/09 00:58:43;;;;;;;;;;;16.80;99.90;17.00;99285.00;;;;345978;28;82538;-87
2022/11/09 00:58:55;;;;;;;;;;;16.80;99.90;17.00;99294.00;;;;347059;28;91276;-86
2022/11/09 00:59:08;;;;;;;;;;;16.90;99.90;17.00;99292.00;;;;348857;27;82517;-87
2022/11/09 00:59:20;;;;;;;;;;;16.80;99.90;17.00;99283.00;;;;347043;28;90502;-87
2022/11/09 00:59:32;;;;;;;;;;;16.80;99.90;17.00;99284.00;;;;345929;28;83474;-87
2022/11/09 00:59:43;;;;;;;;;;;16.80;99.90;17.00;99281.00;;;;345412;28;91280;-87
2022/11/09 00:59:55;;;;;;;;;;;16.80;99.90;17.00;99290.00;;;;345989;28;83513;-87